Time;durP1;ratioP1;P1;durP2;ratioP2;P2;SDS_P1;SDS_P2;PMS_P1;PMS_P2;Temp;Humidity;BMP_temperature;BMP_pressure;BME280_temperature;BME280_humidity;BME280_pressure;Samples;Min_cycle;Max_cycle;Signal;HPM_P1;HPM_P2
2022/08/06 00:01:31;;;;;;;;;;;18.30;98.30;;;;;;5069959;28;20054;-50
2022/08/06 00:03:56;;;;;;;;;;;18.30;98.20;;;;;;5070859;28;20451;-55
2022/08/06 00:06:22;;;;;;;;;;;18.30;98.10;;;;;;5067890;28;19924;-50
2022/08/06 00:08:48;;;;;;;;;;;18.30;98.00;;;;;;5070947;28;20750;-54
2022/08/06 00:11:13;;;;;;;;;;;18.20;97.70;;;;;;5066232;28;19916;-55
2022/08/06 00:13:39;;;;;;;;;;;18.20;97.80;;;;;;5068925;28;20403;-52
2022/08/06 00:16:04;;;;;;;;;;;18.20;97.80;;;;;;5069692;28;19917;-55
2022/08/06 00:18:30;;;;;;;;;;;18.20;97.90;;;;;;5070087;28;19909;-52
2022/08/06 00:20:55;;;;;;;;;;;18.20;97.90;;;;;;5068021;28;19917;-53
2022/08/06 00:23:21;;;;;;;;;;;18.30;97.50;;;;;;5070487;28;19924;-53
2022/08/06 00:25:47;;;;;;;;;;;18.30;97.40;;;;;;5069305;28;19912;-54
2022/08/06 00:28:12;;;;;;;;;;;18.20;97.70;;;;;;5069473;28;19920;-51
2022/08/06 00:30:38;;;;;;;;;;;18.20;97.70;;;;;;5070754;28;20026;-54
2022/08/06 00:33:03;;;;;;;;;;;18.10;97.80;;;;;;5067742;28;19920;-51
2022/08/06 00:35:29;;;;;;;;;;;18.10;97.60;;;;;;5069217;28;19966;-56
2022/08/06 00:37:55;;;;;;;;;;;17.90;97.80;;;;;;5072054;28;19928;-54
2022/08/06 00:40:21;;;;;;;;;;;18.00;97.80;;;;;;5074546;28;19913;-52
2022/08/06 00:42:46;;;;;;;;;;;18.00;97.70;;;;;;5074074;28;20299;-54
2022/08/06 00:45:12;;;;;;;;;;;18.10;97.60;;;;;;5074668;28;19922;-54
2022/08/06 00:47:37;;;;;;;;;;;18.00;97.60;;;;;;5072976;28;19978;-53
2022/08/06 00:50:03;;;;;;;;;;;18.00;97.40;;;;;;5073468;28;20083;-56
2022/08/06 00:52:29;;;;;;;;;;;17.80;97.90;;;;;;5073987;28;19920;-57
2022/08/06 00:54:54;;;;;;;;;;;17.90;97.60;;;;;;5074498;28;19919;-55
2022/08/06 00:57:20;;;;;;;;;;;18.00;97.50;;;;;;5074222;28;19940;-54
2022/08/06 00:59:45;;;;;;;;;;;18.00;97.40;;;;;;5070965;28;19952;-56
2022/08/06 01:02:12;;;;;;;;;;;17.90;97.50;;;;;;5073175;28;21549;-53
2022/08/06 01:04:38;;;;;;;;;;;17.70;97.50;;;;;;5073952;28;19962;-53
2022/08/06 01:07:04;;;;;;;;;;;17.60;97.60;;;;;;5072164;28;19917;-56
2022/08/06 01:09:29;;;;;;;;;;;17.60;97.60;;;;;;5074190;28;19912;-57
2022/08/06 01:11:55;;;;;;;;;;;17.50;97.50;;;;;;5073981;28;19916;-57
2022/08/06 01:14:20;;;;;;;;;;;17.50;97.60;;;;;;5055388;28;19913;-54
2022/08/06 01:16:47;;;;;;;;;;;17.40;97.70;;;;;;5062142;28;20304;-56
2022/08/06 01:19:25;;;;;;;;;;;17.50;97.30;;;;;;5074711;28;19912;-57
2022/08/06 01:21:56;;;;;;;;;;;17.50;97.50;;;;;;5065533;28;19913;-53
2022/08/06 01:24:50;;;;;;;;;;;17.40;97.40;;;;;;5054597;28;20402;-57
2022/08/06 01:27:15;;;;;;;;;;;17.30;97.50;;;;;;5064403;28;19916;-56
2022/08/06 01:29:46;;;;;;;;;;;17.30;97.40;;;;;;5073624;28;19919;-55
2022/08/06 01:32:14;;;;;;;;;;;17.30;97.60;;;;;;5064189;28;20035;-56
2022/08/06 01:34:51;;;;;;;;;;;17.30;97.20;;;;;;5069218;28;19919;-56
2022/08/06 01:37:30;;;;;;;;;;;17.30;97.30;;;;;;5072738;28;19987;-55
2022/08/06 01:39:58;;;;;;;;;;;17.30;96.50;;;;;;5074491;28;19912;-54
2022/08/06 01:42:25;;;;;;;;;;;17.20;96.50;;;;;;5062878;28;20011;-52
2022/08/06 01:44:54;;;;;;;;;;;17.20;96.80;;;;;;5066937;28;19920;-57
2022/08/06 01:47:21;;;;;;;;;;;17.20;97.00;;;;;;5072510;28;20291;-57
2022/08/06 01:49:48;;;;;;;;;;;17.20;96.70;;;;;;5065602;28;19985;-57
2022/08/06 01:52:15;;;;;;;;;;;17.00;96.80;;;;;;5053179;28;20023;-54
2022/08/06 01:54:43;;;;;;;;;;;16.90;97.00;;;;;;5071168;28;19913;-57
2022/08/06 01:57:10;;;;;;;;;;;16.90;96.90;;;;;;5073122;28;19999;-52
2022/08/06 01:59:37;;;;;;;;;;;17.00;96.90;;;;;;5072820;28;19916;-55
2022/08/06 02:02:06;;;;;;;;;;;17.00;97.20;;;;;;5073396;28;19921;-51
2022/08/06 02:04:34;;;;;;;;;;;17.00;96.80;;;;;;5057431;28;20514;-55
2022/08/06 02:07:02;;;;;;;;;;;17.10;96.50;;;;;;5052381;28;19917;-52
2022/08/06 02:09:29;;;;;;;;;;;17.10;96.30;;;;;;5067750;28;20278;-57
2022/08/06 02:12:07;;;;;;;;;;;17.10;96.40;;;;;;5073142;28;19912;-57
2022/08/06 02:14:34;;;;;;;;;;;17.00;96.60;;;;;;5086870;28;19916;-51
2022/08/06 02:17:02;;;;;;;;;;;16.90;96.60;;;;;;5091137;28;19908;-55
2022/08/06 02:19:29;;;;;;;;;;;16.90;96.60;;;;;;5053776;28;19917;-57
2022/08/06 02:21:56;;;;;;;;;;;16.70;97.00;;;;;;5052479;28;19912;-56
2022/08/06 02:24:23;;;;;;;;;;;16.80;96.90;;;;;;5054136;28;19996;-56
2022/08/06 02:26:48;;;;;;;;;;;16.60;97.20;;;;;;5053211;28;19924;-53
2022/08/06 02:29:16;;;;;;;;;;;16.50;97.40;;;;;;5071029;28;20019;-57
2022/08/06 02:31:43;;;;;;;;;;;16.30;97.70;;;;;;5073221;28;20467;-55
2022/08/06 02:34:08;;;;;;;;;;;16.40;97.60;;;;;;5067679;28;20484;-55
2022/08/06 02:36:37;;;;;;;;;;;16.40;97.60;;;;;;5068354;28;19927;-56
2022/08/06 02:39:13;;;;;;;;;;;16.40;97.60;;;;;;5072410;28;19916;-54
2022/08/06 02:41:45;;;;;;;;;;;16.40;97.50;;;;;;5071746;28;19919;-57
2022/08/06 02:44:23;;;;;;;;;;;16.30;97.50;;;;;;5072773;28;19908;-55
2022/08/06 02:46:52;;;;;;;;;;;16.30;97.70;;;;;;5072136;28;19920;-51
2022/08/06 02:49:20;;;;;;;;;;;16.30;97.80;;;;;;5071631;28;20276;-56
2022/08/06 02:51:51;;;;;;;;;;;16.20;97.90;;;;;;5063243;28;19924;-55
2022/08/06 02:54:22;;;;;;;;;;;16.30;98.20;;;;;;5053452;28;19909;-53
2022/08/06 02:56:49;;;;;;;;;;;16.40;97.90;;;;;;5071340;28;19919;-59
2022/08/06 02:59:18;;;;;;;;;;;16.30;97.90;;;;;;5072416;28;19919;-55
2022/08/06 03:01:54;;;;;;;;;;;16.40;97.90;;;;;;5070860;28;20299;-54
2022/08/06 03:04:23;;;;;;;;;;;16.30;97.80;;;;;;5068796;28;19908;-54
2022/08/06 03:06:48;;;;;;;;;;;16.30;97.80;;;;;;5070479;28;19928;-52
2022/08/06 03:09:15;;;;;;;;;;;16.30;98.10;;;;;;5067113;28;20067;-57
2022/08/06 03:11:41;;;;;;;;;;;16.30;98.30;;;;;;5052194;28;20261;-56
2022/08/06 03:14:07;;;;;;;;;;;16.30;97.90;;;;;;5055949;28;20075;-58
2022/08/06 03:16:37;;;;;;;;;;;16.40;97.70;;;;;;5070290;28;20568;-55
2022/08/06 03:19:03;;;;;;;;;;;16.40;97.50;;;;;;5069127;28;19921;-57
2022/08/06 03:21:30;;;;;;;;;;;16.40;97.60;;;;;;5051890;28;20089;-54
2022/08/06 03:23:57;;;;;;;;;;;16.40;97.60;;;;;;5052752;28;19908;-55
2022/08/06 03:26:25;;;;;;;;;;;16.40;97.70;;;;;;5071289;28;19990;-55
2022/08/06 03:28:52;;;;;;;;;;;16.30;97.50;;;;;;5092035;28;19923;-52
2022/08/06 03:31:18;;;;;;;;;;;16.20;97.90;;;;;;5078699;28;19917;-53
2022/08/06 03:33:43;;;;;;;;;;;16.30;97.80;;;;;;5060191;28;19969;-55
2022/08/06 03:36:09;;;;;;;;;;;16.30;97.60;;;;;;5060012;28;19924;-53
2022/08/06 03:38:40;;;;;;;;;;;16.40;97.70;;;;;;5051441;28;19916;-56
2022/08/06 03:41:07;;;;;;;;;;;16.40;97.50;;;;;;5068227;28;19920;-53
2022/08/06 03:43:33;;;;;;;;;;;16.50;97.30;;;;;;5072157;28;20015;-51
2022/08/06 03:46:00;;;;;;;;;;;16.60;97.00;;;;;;5055539;28;20003;-53
2022/08/06 03:48:29;;;;;;;;;;;16.70;97.00;;;;;;5051818;28;19917;-48
2022/08/06 03:50:56;;;;;;;;;;;16.50;96.90;;;;;;5051281;28;19917;-53
2022/08/06 03:53:25;;;;;;;;;;;16.50;97.20;;;;;;5051593;28;19920;-48
2022/08/06 03:55:54;;;;;;;;;;;16.50;97.10;;;;;;5064523;28;19956;-51
2022/08/06 03:58:21;;;;;;;;;;;16.40;97.30;;;;;;5071616;28;19947;-48
2022/08/06 04:00:50;;;;;;;;;;;16.20;97.50;;;;;;5070687;28;19920;-52
2022/08/06 04:03:17;;;;;;;;;;;16.20;97.50;;;;;;5063790;28;19946;-48
2022/08/06 04:05:42;;;;;;;;;;;16.20;97.30;;;;;;5051422;28;19963;-54
2022/08/06 04:08:09;;;;;;;;;;;16.00;97.80;;;;;;5056980;28;19916;-51
2022/08/06 04:10:37;;;;;;;;;;;16.20;97.60;;;;;;5071267;28;19913;-51
2022/08/06 04:13:04;;;;;;;;;;;16.10;97.50;;;;;;5076205;28;19939;-51
2022/08/06 04:15:29;;;;;;;;;;;16.10;97.60;;;;;;5073493;28;19940;-52
2022/08/06 04:17:55;;;;;;;;;;;16.10;97.30;;;;;;5071631;28;20043;-48
2022/08/06 04:20:22;;;;;;;;;;;16.00;97.80;;;;;;5070598;28;19978;-52
2022/08/06 04:22:48;;;;;;;;;;;16.00;98.20;;;;;;5074918;28;19955;-52
2022/08/06 04:25:13;;;;;;;;;;;15.90;98.00;;;;;;5075485;28;19909;-52
2022/08/06 04:27:40;;;;;;;;;;;15.80;98.00;;;;;;5074083;28;19924;-52
2022/08/06 04:30:06;;;;;;;;;;;15.80;98.30;;;;;;5075057;28;19920;-52
2022/08/06 04:32:32;;;;;;;;;;;15.90;97.90;;;;;;5073572;28;19948;-55
2022/08/06 04:35:01;;;;;;;;;;;16.00;98.10;;;;;;5073346;28;19978;-51
2022/08/06 04:37:27;;;;;;;;;;;16.10;98.10;;;;;;5073856;28;19940;-48
2022/08/06 04:39:53;;;;;;;;;;;16.10;97.50;;;;;;5074762;28;19962;-48
2022/08/06 04:42:19;;;;;;;;;;;16.20;97.30;;;;;;5074067;28;20014;-52
2022/08/06 04:44:44;;;;;;;;;;;16.10;97.40;;;;;;5075131;28;20360;-54
2022/08/06 04:47:10;;;;;;;;;;;16.10;97.60;;;;;;5062067;28;20011;-52
2022/08/06 04:49:36;;;;;;;;;;;16.20;97.40;;;;;;5055075;28;19943;-55
2022/08/06 04:52:02;;;;;;;;;;;16.20;97.20;;;;;;5064126;28;19966;-48
2022/08/06 04:54:27;;;;;;;;;;;16.30;96.80;;;;;;5075106;28;19908;-47
2022/08/06 04:56:53;;;;;;;;;;;16.40;96.80;;;;;;5073869;28;20012;-52
2022/08/06 04:59:18;;;;;;;;;;;16.40;96.70;;;;;;5074732;28;19921;-51
2022/08/06 05:01:44;;;;;;;;;;;16.50;96.50;;;;;;5073697;28;20342;-49
2022/08/06 05:04:09;;;;;;;;;;;16.40;96.10;;;;;;5069385;28;19917;-54
2022/08/06 05:06:53;;;;;;;;;;;16.40;96.50;;;;;;5053733;28;19917;-52
2022/08/06 05:09:21;;;;;;;;;;;16.40;96.50;;;;;;5058728;28;20387;-54
2022/08/06 05:11:52;;;;;;;;;;;16.40;96.60;;;;;;5074464;28;19913;-54
2022/08/06 05:14:26;;;;;;;;;;;16.30;96.80;;;;;;5068719;28;19952;-54
2022/08/06 05:16:53;;;;;;;;;;;16.30;96.70;;;;;;5054100;28;19913;-49
2022/08/06 05:19:32;;;;;;;;;;;16.10;96.80;;;;;;5054811;28;19916;-54
2022/08/06 05:21:59;;;;;;;;;;;16.00;97.30;;;;;;5054747;28;19917;-50
2022/08/06 05:24:25;;;;;;;;;;;16.20;97.00;;;;;;5058013;28;19920;-48
2022/08/06 05:26:51;;;;;;;;;;;16.20;96.90;;;;;;5074535;28;19913;-48
2022/08/06 05:29:20;;;;;;;;;;;16.20;96.60;;;;;;5071203;28;20024;-48
2022/08/06 05:31:46;;;;;;;;;;;16.30;96.60;;;;;;5053924;28;20384;-51
2022/08/06 05:34:12;;;;;;;;;;;16.20;96.90;;;;;;5063762;28;19908;-53
2022/08/06 05:36:38;;;;;;;;;;;16.40;96.70;;;;;;5069136;28;19916;-55
2022/08/06 05:39:03;;;;;;;;;;;16.40;96.70;;;;;;5071980;28;19927;-55
2022/08/06 05:41:29;;;;;;;;;;;16.50;96.30;;;;;;5070398;28;19932;-55
2022/08/06 05:43:54;;;;;;;;;;;16.40;96.30;;;;;;5073533;28;19935;-57
2022/08/06 05:46:21;;;;;;;;;;;16.30;96.50;;;;;;5072169;28;19920;-56
2022/08/06 05:48:54;;;;;;;;;;;16.20;96.60;;;;;;5072922;28;19913;-49
2022/08/06 05:51:33;;;;;;;;;;;16.30;96.50;;;;;;5065660;28;19966;-52
2022/08/06 05:54:19;;;;;;;;;;;16.20;96.70;;;;;;5073392;28;19951;-52
2022/08/06 05:56:46;;;;;;;;;;;16.30;96.90;;;;;;5065817;28;19916;-50
2022/08/06 05:59:20;;;;;;;;;;;16.50;96.60;;;;;;5071555;28;19913;-55
2022/08/06 06:01:47;;;;;;;;;;;16.50;96.60;;;;;;5071637;28;19923;-48
2022/08/06 06:04:13;;;;;;;;;;;16.50;96.40;;;;;;5068684;28;19923;-49
2022/08/06 06:06:39;;;;;;;;;;;16.50;96.70;;;;;;5072530;28;19920;-53
2022/08/06 06:09:05;;;;;;;;;;;16.40;96.80;;;;;;5071757;28;19993;-53
2022/08/06 06:11:31;;;;;;;;;;;16.50;96.70;;;;;;5073311;28;19908;-49
2022/08/06 06:13:57;;;;;;;;;;;16.60;96.70;;;;;;5072981;28;19923;-50
2022/08/06 06:16:25;;;;;;;;;;;16.60;96.30;;;;;;5071252;28;19920;-47
2022/08/06 06:19:06;;;;;;;;;;;16.50;96.40;;;;;;5062700;28;19913;-51
2022/08/06 06:21:45;;;;;;;;;;;16.50;96.60;;;;;;5061943;28;19944;-51
2022/08/06 06:24:11;;;;;;;;;;;16.50;96.50;;;;;;5054792;28;19913;-50
2022/08/06 06:26:36;;;;;;;;;;;16.50;96.30;;;;;;5072031;28;20277;-49
2022/08/06 06:29:13;;;;;;;;;;;16.30;96.80;;;;;;5071837;28;19924;-49
2022/08/06 06:31:50;;;;;;;;;;;16.30;96.90;;;;;;5068351;28;19923;-54
2022/08/06 06:34:38;;;;;;;;;;;16.30;96.90;;;;;;5062042;28;19999;-48
2022/08/06 06:37:24;;;;;;;;;;;16.40;96.90;;;;;;5065896;28;20392;-48
2022/08/06 06:39:52;;;;;;;;;;;16.50;96.60;;;;;;5057363;28;19920;-49
2022/08/06 06:42:27;;;;;;;;;;;16.50;96.40;;;;;;5072042;28;19952;-47
2022/08/06 06:44:58;;;;;;;;;;;16.60;96.30;;;;;;5068956;28;20505;-49
2022/08/06 06:47:23;;;;;;;;;;;16.70;96.30;;;;;;5058050;28;20020;-51
2022/08/06 06:49:53;;;;;;;;;;;16.80;96.30;;;;;;5070006;28;20007;-52
2022/08/06 06:52:19;;;;;;;;;;;16.80;96.20;;;;;;5064778;28;19913;-52
2022/08/06 06:54:47;;;;;;;;;;;17.00;95.90;;;;;;5066178;28;19927;-48
2022/08/06 06:57:15;;;;;;;;;;;16.90;95.70;;;;;;5077862;28;19916;-54
2022/08/06 06:59:43;;;;;;;;;;;16.80;95.90;;;;;;5086719;28;20275;-51
2022/08/06 07:02:14;;;;;;;;;;;16.90;96.00;;;;;;5060784;28;19924;-51
2022/08/06 07:04:40;;;;;;;;;;;17.00;95.70;;;;;;5059259;28;19912;-54
2022/08/06 07:07:05;;;;;;;;;;;17.10;95.40;;;;;;5060991;28;19921;-55
2022/08/06 07:09:33;;;;;;;;;;;17.10;95.60;;;;;;5071823;28;19923;-51
2022/08/06 07:12:00;;;;;;;;;;;17.20;95.50;;;;;;5068259;28;19912;-50
2022/08/06 07:14:27;;;;;;;;;;;17.40;95.30;;;;;;5059478;28;19916;-50
2022/08/06 07:16:55;;;;;;;;;;;17.40;95.30;;;;;;5061854;28;19924;-54
2022/08/06 07:19:20;;;;;;;;;;;17.40;95.20;;;;;;5069494;28;20376;-55
2022/08/06 07:21:46;;;;;;;;;;;17.60;95.10;;;;;;5070903;28;19912;-56
2022/08/06 07:24:13;;;;;;;;;;;17.70;94.60;;;;;;5054602;28;19927;-55
2022/08/06 07:26:41;;;;;;;;;;;17.60;94.50;;;;;;5074778;28;20307;-59
2022/08/06 07:29:06;;;;;;;;;;;17.50;94.50;;;;;;5070791;28;20380;-57
2022/08/06 07:31:32;;;;;;;;;;;17.70;94.50;;;;;;5061560;28;19956;-53
2022/08/06 07:33:58;;;;;;;;;;;17.90;94.50;;;;;;5065894;28;19966;-49
2022/08/06 07:36:26;;;;;;;;;;;18.10;93.90;;;;;;5071056;28;19919;-55
2022/08/06 07:38:52;;;;;;;;;;;18.00;94.20;;;;;;5061262;28;19923;-59
2022/08/06 07:41:19;;;;;;;;;;;17.90;93.80;;;;;;5069743;28;19934;-54
2022/08/06 07:43:54;;;;;;;;;;;18.10;93.70;;;;;;5070922;28;19920;-57
2022/08/06 07:46:22;;;;;;;;;;;18.10;93.70;;;;;;5070262;28;19913;-55
2022/08/06 07:48:52;;;;;;;;;;;18.20;93.40;;;;;;5071613;28;19919;-51
2022/08/06 07:51:18;;;;;;;;;;;18.30;93.50;;;;;;5066761;28;19919;-54
2022/08/06 07:53:44;;;;;;;;;;;18.40;93.30;;;;;;5069791;28;19909;-58
2022/08/06 07:56:10;;;;;;;;;;;18.30;93.10;;;;;;5071929;28;19920;-48
2022/08/06 07:58:36;;;;;;;;;;;18.30;92.80;;;;;;5072191;28;19920;-56
2022/08/06 08:01:02;;;;;;;;;;;18.40;92.80;;;;;;5072220;28;20391;-53
2022/08/06 08:06:23;;;;;;;;;;;18.30;92.60;;;;;;5068553;28;20287;-58
2022/08/06 08:08:56;;;;;;;;;;;18.20;92.30;;;;;;5071411;28;19923;-51
2022/08/06 08:11:23;;;;;;;;;;;18.20;92.10;;;;;;5071087;28;19908;-55
2022/08/06 08:13:50;;;;;;;;;;;18.50;91.00;;;;;;5069278;28;20007;-52
2022/08/06 08:16:17;;;;;;;;;;;18.20;91.60;;;;;;5068481;28;20396;-55
2022/08/06 08:18:43;;;;;;;;;;;18.20;91.40;;;;;;5071418;28;19956;-49
2022/08/06 08:21:09;;;;;;;;;;;18.50;90.80;;;;;;5071438;28;19913;-56
2022/08/06 08:23:36;;;;;;;;;;;18.50;90.40;;;;;;5069381;28;19947;-52
2022/08/06 08:26:02;;;;;;;;;;;18.40;90.40;;;;;;5070882;28;19908;-49
2022/08/06 08:28:29;;;;;;;;;;;18.70;90.80;;;;;;5071238;28;19908;-57
2022/08/06 08:30:57;;;;;;;;;;;19.10;90.10;;;;;;5071316;28;19912;-57
2022/08/06 08:33:23;;;;;;;;;;;19.30;89.80;;;;;;5070976;28;19912;-54
2022/08/06 08:35:55;;;;;;;;;;;19.60;88.90;;;;;;5073411;28;19901;-60
2022/08/06 08:38:26;;;;;;;;;;;19.60;87.80;;;;;;5043358;28;19908;-57
2022/08/06 08:40:53;;;;;;;;;;;19.60;87.40;;;;;;5068764;28;19935;-56
2022/08/06 08:43:29;;;;;;;;;;;19.20;87.90;;;;;;5071301;28;19999;-55
2022/08/06 08:45:55;;;;;;;;;;;19.30;88.90;;;;;;5071062;28;19908;-56
2022/08/06 08:48:23;;;;;;;;;;;19.40;88.30;;;;;;5071327;28;19960;-55
2022/08/06 08:50:49;;;;;;;;;;;19.40;87.80;;;;;;5070698;28;19909;-56
2022/08/06 08:53:20;;;;;;;;;;;19.40;87.70;;;;;;5070867;28;19935;-56
2022/08/06 08:55:45;;;;;;;;;;;19.20;87.60;;;;;;5072699;28;20098;-55
2022/08/06 08:58:12;;;;;;;;;;;18.90;88.10;;;;;;5077700;28;19916;-53
2022/08/06 09:00:37;;;;;;;;;;;18.90;89.00;;;;;;5076933;28;20101;-57
2022/08/06 09:03:03;;;;;;;;;;;19.00;88.90;;;;;;5074023;28;20364;-55
2022/08/06 09:05:29;;;;;;;;;;;19.10;88.30;;;;;;5073873;28;20251;-59
2022/08/06 09:07:56;;;;;;;;;;;19.40;88.10;;;;;;5074169;28;19916;-57
2022/08/06 09:10:21;;;;;;;;;;;19.50;86.20;;;;;;5071680;28;19916;-54
2022/08/06 09:12:47;;;;;;;;;;;19.40;85.30;;;;;;5074443;28;20268;-56
2022/08/06 09:15:14;;;;;;;;;;;19.20;84.30;;;;;;5074549;28;20415;-57
2022/08/06 09:17:40;;;;;;;;;;;19.10;85.10;;;;;;5073042;28;19912;-57
2022/08/06 09:20:06;;;;;;;;;;;19.20;84.30;;;;;;5073581;28;19920;-55
2022/08/06 09:22:31;;;;;;;;;;;19.20;84.50;;;;;;5073965;28;19913;-58
2022/08/06 09:24:57;;;;;;;;;;;19.00;84.90;;;;;;5073669;28;19917;-57
2022/08/06 09:27:22;;;;;;;;;;;19.30;84.90;;;;;;5074246;28;20288;-59
2022/08/06 09:29:49;;;;;;;;;;;19.40;84.40;;;;;;5074437;28;19913;-58
2022/08/06 09:32:35;;;;;;;;;;;19.70;84.00;;;;;;5074073;28;20401;-58
2022/08/06 09:35:00;;;;;;;;;;;20.00;83.00;;;;;;5071497;28;19909;-55
2022/08/06 09:37:29;;;;;;;;;;;19.70;80.50;;;;;;5074263;28;19915;-55
2022/08/06 09:39:54;;;;;;;;;;;19.60;80.70;;;;;;5074252;28;20360;-57
2022/08/06 09:42:38;;;;;;;;;;;19.70;81.00;;;;;;5073524;28;19991;-55
2022/08/06 09:45:08;;;;;;;;;;;20.00;81.40;;;;;;5073651;28;19916;-56
2022/08/06 09:47:36;;;;;;;;;;;20.40;81.70;;;;;;5072177;28;20449;-57
2022/08/06 09:50:01;;;;;;;;;;;20.50;78.60;;;;;;5073418;28;19908;-58
2022/08/06 09:52:27;;;;;;;;;;;20.70;78.50;;;;;;5073475;28;19954;-57
2022/08/06 09:54:52;;;;;;;;;;;20.60;79.80;;;;;;5073359;28;20325;-52
2022/08/06 09:57:18;;;;;;;;;;;19.90;80.00;;;;;;5073302;28;19958;-53
2022/08/06 09:59:44;;;;;;;;;;;19.60;80.60;;;;;;5073425;28;19913;-57
2022/08/06 10:02:19;;;;;;;;;;;19.80;80.20;;;;;;5073178;28;19924;-55
2022/08/06 10:04:45;;;;;;;;;;;19.70;78.20;;;;;;5073412;28;20356;-56
2022/08/06 10:07:11;;;;;;;;;;;19.70;79.30;;;;;;5072822;28;19916;-54
2022/08/06 10:09:49;;;;;;;;;;;19.60;80.90;;;;;;5073097;28;19909;-56
2022/08/06 10:12:19;;;;;;;;;;;19.60;80.40;;;;;;5073455;28;19915;-57
2022/08/06 10:14:45;;;;;;;;;;;19.60;80.80;;;;;;5072939;28;19932;-52
2022/08/06 10:17:10;;;;;;;;;;;19.80;78.70;;;;;;5073055;28;19908;-55
2022/08/06 10:19:37;;;;;;;;;;;19.80;76.60;;;;;;5073199;28;20230;-58
2022/08/06 10:22:06;;;;;;;;;;;19.90;75.70;;;;;;5072971;28;20020;-53
2022/08/06 10:24:34;;;;;;;;;;;20.20;74.90;;;;;;5072901;28;19909;-56
2022/08/06 10:27:00;;;;;;;;;;;20.30;73.80;;;;;;5072545;28;19962;-54
2022/08/06 10:29:26;;;;;;;;;;;20.30;74.60;;;;;;5070285;28;19955;-52
2022/08/06 10:31:53;;;;;;;;;;;20.40;74.60;;;;;;5072663;28;19919;-56
2022/08/06 10:34:26;;;;;;;;;;;20.70;74.00;;;;;;5071406;28;19926;-57
2022/08/06 10:36:54;;;;;;;;;;;20.90;74.40;;;;;;5066203;28;19912;-55
2022/08/06 10:39:25;;;;;;;;;;;20.80;75.10;;;;;;5070795;28;20257;-57
2022/08/06 10:41:53;;;;;;;;;;;21.00;75.80;;;;;;5070466;28;19912;-58
2022/08/06 10:44:19;;;;;;;;;;;20.90;75.90;;;;;;5072362;28;19913;-58
2022/08/06 10:46:45;;;;;;;;;;;20.60;75.80;;;;;;5071821;28;20300;-57
2022/08/06 10:49:12;;;;;;;;;;;20.40;76.50;;;;;;5072448;28;19917;-58
2022/08/06 10:51:38;;;;;;;;;;;20.50;76.00;;;;;;5072523;28;19995;-53
2022/08/06 10:54:03;;;;;;;;;;;20.60;76.70;;;;;;5072849;28;19944;-58
2022/08/06 10:56:29;;;;;;;;;;;21.00;76.30;;;;;;5072781;28;19955;-55
2022/08/06 10:58:55;;;;;;;;;;;21.10;76.50;;;;;;5072573;28;20303;-54
2022/08/06 11:01:23;;;;;;;;;;;21.00;75.60;;;;;;5072435;28;19920;-57
2022/08/06 11:04:01;;;;;;;;;;;20.60;75.70;;;;;;5072680;28;20007;-57
2022/08/06 11:06:39;;;;;;;;;;;20.60;75.50;;;;;;5072211;28;20342;-55
2022/08/06 11:09:23;;;;;;;;;;;20.70;75.80;;;;;;5072543;28;19908;-56
2022/08/06 11:11:57;;;;;;;;;;;20.80;75.00;;;;;;5072402;28;19908;-59
2022/08/06 11:14:23;;;;;;;;;;;20.80;74.20;;;;;;5072424;28;19912;-58
2022/08/06 11:16:55;;;;;;;;;;;21.20;73.70;;;;;;5072512;28;20354;-59
2022/08/06 11:19:36;;;;;;;;;;;21.40;73.90;;;;;;5072512;28;19915;-62
2022/08/06 11:22:02;;;;;;;;;;;21.60;70.70;;;;;;5071433;28;19909;-60
2022/08/06 11:24:27;;;;;;;;;;;21.60;70.70;;;;;;5071035;28;19953;-63
2022/08/06 11:26:53;;;;;;;;;;;21.60;71.30;;;;;;5071621;28;19961;-55
2022/08/06 11:29:18;;;;;;;;;;;22.00;71.30;;;;;;5071831;28;19913;-55
2022/08/06 11:31:48;;;;;;;;;;;21.80;70.90;;;;;;5072190;28;19920;-55
2022/08/06 11:58:37;;;;;;;;;;;21.40;69.30;;;;;;5071321;28;19909;-54
2022/08/06 12:01:03;;;;;;;;;;;21.30;69.20;;;;;;5070997;28;19929;-54
2022/08/06 12:03:38;;;;;;;;;;;21.50;68.40;;;;;;5070974;28;19912;-54
2022/08/06 12:06:23;;;;;;;;;;;21.90;67.70;;;;;;5071974;28;19909;-50
2022/08/06 12:09:18;;;;;;;;;;;22.10;69.00;;;;;;5071340;28;20368;-53
2022/08/06 12:11:44;;;;;;;;;;;21.90;70.30;;;;;;5070368;28;20245;-53
2022/08/06 12:14:29;;;;;;;;;;;21.90;70.30;;;;;;5071746;28;19908;-50
2022/08/06 12:16:55;;;;;;;;;;;21.60;70.90;;;;;;5069112;28;20549;-59
2022/08/06 12:19:21;;;;;;;;;;;21.30;71.00;;;;;;5066369;28;19955;-58
2022/08/06 12:21:50;;;;;;;;;;;21.10;72.10;;;;;;5066419;28;20335;-57
2022/08/06 12:24:21;;;;;;;;;;;21.10;72.50;;;;;;5067120;28;20090;-57
2022/08/06 12:26:47;;;;;;;;;;;21.30;72.30;;;;;;5070474;28;19923;-58
2022/08/06 12:29:12;;;;;;;;;;;21.50;70.40;;;;;;5070878;28;20198;-56
2022/08/06 12:31:39;;;;;;;;;;;21.90;69.40;;;;;;5071434;28;19924;-58
2022/08/06 12:34:05;;;;;;;;;;;22.10;70.00;;;;;;5075314;28;20028;-59
2022/08/06 12:36:31;;;;;;;;;;;22.50;67.70;;;;;;5074671;28;19908;-58
2022/08/06 12:38:58;;;;;;;;;;;22.60;67.20;;;;;;5074387;28;19919;-59
2022/08/06 12:41:31;;;;;;;;;;;22.70;66.00;;;;;;5074793;28;20163;-56
2022/08/06 12:43:56;;;;;;;;;;;22.80;66.20;;;;;;5075020;28;20410;-59
2022/08/06 12:46:23;;;;;;;;;;;22.70;66.80;;;;;;5074307;28;19924;-56
2022/08/06 12:48:49;;;;;;;;;;;22.60;66.70;;;;;;5074126;28;19927;-57
2022/08/06 12:51:15;;;;;;;;;;;22.50;66.50;;;;;;5072297;28;19912;-58
2022/08/06 12:53:42;;;;;;;;;;;22.10;66.50;;;;;;5074105;28;19924;-59
2022/08/06 12:56:10;;;;;;;;;;;21.90;66.80;;;;;;5073273;28;20299;-57
2022/08/06 12:58:36;;;;;;;;;;;21.80;67.20;;;;;;5074700;28;19916;-55
2022/08/06 13:01:03;;;;;;;;;;;22.00;66.90;;;;;;5074367;28;19982;-59
2022/08/06 13:03:29;;;;;;;;;;;22.20;65.00;;;;;;5074183;28;19928;-56
2022/08/06 13:05:58;;;;;;;;;;;22.70;64.80;;;;;;5071473;28;19917;-59
2022/08/06 13:08:24;;;;;;;;;;;22.50;64.40;;;;;;5073398;28;19920;-57
2022/08/06 13:10:50;;;;;;;;;;;22.60;65.30;;;;;;5066667;28;19939;-54
2022/08/06 13:13:16;;;;;;;;;;;22.70;64.30;;;;;;5074659;28;19912;-56
2022/08/06 13:15:42;;;;;;;;;;;23.10;64.10;;;;;;5074908;28;19916;-56
2022/08/06 13:18:11;;;;;;;;;;;23.40;64.00;;;;;;5069887;28;19958;-58
2022/08/06 13:20:37;;;;;;;;;;;23.00;64.40;;;;;;5067521;28;19916;-58
2022/08/06 13:23:02;;;;;;;;;;;22.60;64.60;;;;;;5067634;28;19957;-59
2022/08/06 13:25:28;;;;;;;;;;;22.40;64.40;;;;;;5073865;28;19912;-57
2022/08/06 13:28:13;;;;;;;;;;;22.50;66.20;;;;;;5073718;28;19921;-59
2022/08/06 13:30:39;;;;;;;;;;;22.70;64.30;;;;;;5075068;28;19916;-57
2022/08/06 13:33:15;;;;;;;;;;;23.10;63.60;;;;;;5074105;28;20279;-58
2022/08/06 13:35:41;;;;;;;;;;;23.40;62.80;;;;;;5072518;28;19921;-57
2022/08/06 13:38:09;;;;;;;;;;;23.60;63.80;;;;;;5072735;28;19908;-59
2022/08/06 13:40:40;;;;;;;;;;;23.70;64.00;;;;;;5073494;28;19979;-55
2022/08/06 13:43:06;;;;;;;;;;;23.50;60.50;;;;;;5074098;28;19916;-57
2022/08/06 13:45:32;;;;;;;;;;;23.00;60.70;;;;;;5073503;28;19913;-57
2022/08/06 13:48:01;;;;;;;;;;;22.50;60.50;;;;;;5073205;28;19921;-56
2022/08/06 13:50:27;;;;;;;;;;;22.20;61.60;;;;;;5074294;28;19998;-57
2022/08/06 13:52:52;;;;;;;;;;;22.30;61.30;;;;;;5073992;28;19948;-56
2022/08/06 13:55:21;;;;;;;;;;;22.60;61.00;;;;;;5073632;28;19991;-58
2022/08/06 13:57:47;;;;;;;;;;;23.00;60.90;;;;;;5073780;28;19915;-58
2022/08/06 14:00:12;;;;;;;;;;;23.40;60.70;;;;;;5073152;28;19928;-57
2022/08/06 14:02:38;;;;;;;;;;;23.60;60.30;;;;;;5073641;28;19970;-60
2022/08/06 14:05:04;;;;;;;;;;;23.60;60.80;;;;;;5074364;28;19948;-58
2022/08/06 14:07:29;;;;;;;;;;;23.60;61.20;;;;;;5073013;28;20037;-55
2022/08/06 14:09:55;;;;;;;;;;;23.60;60.80;;;;;;5072992;28;19984;-59
2022/08/06 14:12:20;;;;;;;;;;;23.80;60.50;;;;;;5073588;28;19916;-58
2022/08/06 14:14:46;;;;;;;;;;;23.60;61.10;;;;;;5074125;28;20280;-59
2022/08/06 14:17:11;;;;;;;;;;;23.90;61.20;;;;;;5076272;28;19913;-57
2022/08/06 14:19:37;;;;;;;;;;;24.50;59.60;;;;;;5076164;28;19912;-61
2022/08/06 14:22:03;;;;;;;;;;;24.50;59.50;;;;;;5075753;28;19916;-58
2022/08/06 14:24:28;;;;;;;;;;;24.60;58.60;;;;;;5074393;28;19912;-59
2022/08/06 14:26:53;;;;;;;;;;;24.20;57.90;;;;;;5073165;28;19916;-55
2022/08/06 14:29:19;;;;;;;;;;;23.50;58.50;;;;;;5073132;28;19912;-59
2022/08/06 14:31:45;;;;;;;;;;;23.50;59.00;;;;;;5072306;28;20267;-58
2022/08/06 14:34:10;;;;;;;;;;;24.10;59.60;;;;;;5073192;28;19913;-60
2022/08/06 14:36:37;;;;;;;;;;;24.60;57.70;;;;;;5072431;28;19928;-57
2022/08/06 14:39:02;;;;;;;;;;;24.70;56.70;;;;;;5073262;28;19917;-58
2022/08/06 14:46:56;;;;;;;;;;;24.70;56.90;;;;;;5072404;28;19920;-60
2022/08/06 14:49:22;;;;;;;;;;;24.80;58.00;;;;;;5071675;28;20181;-57
2022/08/06 14:51:47;;;;;;;;;;;25.20;59.20;;;;;;5070099;28;19908;-59
2022/08/06 14:54:14;;;;;;;;;;;24.90;56.80;;;;;;5070424;28;19916;-57